Time;durP1;ratioP1;P1;durP2;ratioP2;P2;SDS_P1;SDS_P2;PMS_P1;PMS_P2;Temp;Humidity;BMP_temperature;BMP_pressure;BME280_temperature;BME280_humidity;BME280_pressure;Samples;Min_cycle;Max_cycle;Signal;HPM_P1;HPM_P2
2024/04/17 00:01:13;;;;;;;;;;;;;;;;;;2201474;59;2417;-15
2024/04/17 00:03:44;;;;;;;;;;;;;;;;;;2200991;66;1765;-16
2024/04/17 00:06:14;;;;;;;;;;;;;;;;;;2201220;66;1840;-15
2024/04/17 00:08:45;;;;;;;;;;;;;;;;;;2200829;66;1978;-16
2024/04/17 00:11:15;;;;;;;;;;;;;;;;;;2201175;66;1866;-16
2024/04/17 00:13:46;;;;;;;;;;;;;;;;;;2200624;59;2586;-16
2024/04/17 00:16:16;;;;;;;;;;;;;;;;;;2201881;66;1802;-15
2024/04/17 00:18:46;;;;;;;;;;;;;;;;;;2200929;66;1910;-15
2024/04/17 00:21:17;;;;;;;;;;;;;;;;;;2201118;66;1909;-15
2024/04/17 00:23:47;;;;;;;;;;;;;;;;;;2200966;58;2035;-16
2024/04/17 00:26:17;;;;;;;;;;;;;;;;;;2201458;59;1866;-15
2024/04/17 00:28:48;;;;;;;;;;;;;;;;;;2200664;59;1981;-14
2024/04/17 00:31:18;;;;;;;;;;;;;;;;;;2201477;66;1720;-15
2024/04/17 00:33:48;;;;;;;;;;;;;;;;;;2200199;59;1857;-15
2024/04/17 00:36:19;;;;;;;;;;;;;;;;;;2201558;59;1744;-15
2024/04/17 00:38:49;;;;;;;;;;;;;;;;;;2200561;66;1851;-15
2024/04/17 00:41:19;;;;;;;;;;;;;;;;;;2201518;66;2588;-15
2024/04/17 00:43:49;;;;;;;;;;;;;;;;;;2201403;59;1824;-15
2024/04/17 00:46:20;;;;;;;;;;;;;;;;;;2202101;66;1860;-15
2024/04/17 00:48:50;;;;;;;;;;;;;;;;;;2200784;59;1980;-16
2024/04/17 00:51:21;;;;;;;;;;;;;;;;;;2201608;66;1778;-15
2024/04/17 00:53:51;;;;;;;;;;;;;;;;;;2200529;66;1878;-15
2024/04/17 00:56:21;;;;;;;;;;;;;;;;;;2202644;66;1981;-15
2024/04/17 00:58:52;;;;;;;;;;;;;;;;;;2198813;66;1890;-15
2024/04/17 01:01:22;;;;;;;;;;;;;;;;;;2202206;59;1817;-16
2024/04/17 01:03:52;;;;;;;;;;;;;;;;;;2200982;66;1831;-15
2024/04/17 01:06:23;;;;;;;;;;;;;;;;;;2202405;66;1988;-17
2024/04/17 01:08:53;;;;;;;;;;;;;;;;;;2201927;66;1960;-16
2024/04/17 01:11:23;;;;;;;;;;;;;;;;;;2199500;59;1850;-15
2024/04/17 01:13:54;;;;;;;;;;;;;;;;;;2200809;66;1755;-16
2024/04/17 01:16:24;;;;;;;;;;;;;;;;;;2201999;66;1982;-16
2024/04/17 01:18:55;;;;;;;;;;;;;;;;;;2200444;66;1881;-15
2024/04/17 01:21:25;;;;;;;;;;;;;;;;;;2201763;66;2073;-16
2024/04/17 01:23:56;;;;;;;;;;;;;;;;;;2200637;66;2157;-16
2024/04/17 01:26:26;;;;;;;;;;;;;;;;;;2201898;59;1870;-15
2024/04/17 01:28:56;;;;;;;;;;;;;;;;;;2200903;66;2000;-15
2024/04/17 01:31:27;;;;;;;;;;;;;;;;;;2202620;66;1805;-16
2024/04/17 01:33:57;;;;;;;;;;;;;;;;;;2201449;59;1912;-16
2024/04/17 01:36:27;;;;;;;;;;;;;;;;;;2202318;59;2498;-15
2024/04/17 01:38:57;;;;;;;;;;;;;;;;;;2200410;66;1886;-17
2024/04/17 01:41:28;;;;;;;;;;;;;;;;;;2202693;66;1933;-14
2024/04/17 01:43:58;;;;;;;;;;;;;;;;;;2201544;66;1944;-15
2024/04/17 01:46:29;;;;;;;;;;;;;;;;;;2204121;59;2171;-16
2024/04/17 01:48:59;;;;;;;;;;;;;;;;;;2201072;66;1931;-15
2024/04/17 01:51:29;;;;;;;;;;;;;;;;;;2202267;66;1998;-16
2024/04/17 01:53:59;;;;;;;;;;;;;;;;;;2200576;66;2602;-17
2024/04/17 01:56:30;;;;;;;;;;;;;;;;;;2201953;66;3335;-16
2024/04/17 01:59:00;;;;;;;;;;;;;;;;;;2201034;59;2029;-17
2024/04/17 02:01:31;;;;;;;;;;;;;;;;;;2201026;59;1816;-17
2024/04/17 02:04:02;;;;;;;;;;;;;;;;;;2200457;66;1895;-17
2024/04/17 02:06:32;;;;;;;;;;;;;;;;;;2201556;66;1902;-16
2024/04/17 02:09:02;;;;;;;;;;;;;;;;;;2200742;66;1940;-16
2024/04/17 02:11:33;;;;;;;;;;;;;;;;;;2201663;59;1901;-16
2024/04/17 02:14:03;;;;;;;;;;;;;;;;;;2200917;59;1879;-16
2024/04/17 02:16:34;;;;;;;;;;;;;;;;;;2199121;66;1849;-16
2024/04/17 02:19:04;;;;;;;;;;;;;;;;;;2199842;66;1804;-16
2024/04/17 02:21:35;;;;;;;;;;;;;;;;;;2202614;66;1959;-16
2024/04/17 02:24:05;;;;;;;;;;;;;;;;;;2201142;58;1869;-16
2024/04/17 02:26:36;;;;;;;;;;;;;;;;;;2202868;59;1994;-16
2024/04/17 02:29:07;;;;;;;;;;;;;;;;;;2202934;59;1949;-16
2024/04/17 02:31:37;;;;;;;;;;;;;;;;;;2201908;66;2014;-16
2024/04/17 02:34:07;;;;;;;;;;;;;;;;;;2200599;59;1936;-16
2024/04/17 02:36:38;;;;;;;;;;;;;;;;;;2207529;58;2776;-18
2024/04/17 02:39:08;;;;;;;;;;;;;;;;;;2200223;66;1924;-16
2024/04/17 02:41:39;;;;;;;;;;;;;;;;;;2202070;66;1778;-16
2024/04/17 02:44:09;;;;;;;;;;;;;;;;;;2200093;66;2071;-18
2024/04/17 02:46:39;;;;;;;;;;;;;;;;;;2201139;66;1885;-16
2024/04/17 02:49:10;;;;;;;;;;;;;;;;;;2200370;66;1937;-16
2024/04/17 02:51:40;;;;;;;;;;;;;;;;;;2202540;66;2064;-17
2024/04/17 02:54:11;;;;;;;;;;;;;;;;;;2200347;66;1972;-16
2024/04/17 02:56:42;;;;;;;;;;;;;;;;;;2201835;66;1923;-16
2024/04/17 02:59:12;;;;;;;;;;;;;;;;;;2200111;66;2152;-16
2024/04/17 03:01:43;;;;;;;;;;;;;;;;;;2201261;59;2008;-16
2024/04/17 03:04:13;;;;;;;;;;;;;;;;;;2199827;66;2205;-16
2024/04/17 03:06:44;;;;;;;;;;;;;;;;;;2200848;66;1858;-16
2024/04/17 03:09:14;;;;;;;;;;;;;;;;;;2201304;66;2003;-16
2024/04/17 03:11:45;;;;;;;;;;;;;;;;;;2200558;66;2489;-16
2024/04/17 03:14:16;;;;;;;;;;;;;;;;;;2202245;66;2614;-16
2024/04/17 03:16:47;;;;;;;;;;;;;;;;;;2200129;66;1836;-16
2024/04/17 03:19:17;;;;;;;;;;;;;;;;;;2200942;66;1857;-16
2024/04/17 03:21:47;;;;;;;;;;;;;;;;;;2200802;66;1819;-16
2024/04/17 03:24:18;;;;;;;;;;;;;;;;;;2202079;58;1914;-17
2024/04/17 03:26:48;;;;;;;;;;;;;;;;;;2201400;59;1918;-17
2024/04/17 03:29:19;;;;;;;;;;;;;;;;;;2202230;59;1941;-16
2024/04/17 03:31:50;;;;;;;;;;;;;;;;;;2200458;59;1799;-16
2024/04/17 03:34:20;;;;;;;;;;;;;;;;;;2202073;59;1849;-16
2024/04/17 03:36:50;;;;;;;;;;;;;;;;;;2198339;58;2667;-15
2024/04/17 03:39:21;;;;;;;;;;;;;;;;;;2203810;66;2155;-16
2024/04/17 03:41:51;;;;;;;;;;;;;;;;;;2200735;59;1845;-16
2024/04/17 03:44:22;;;;;;;;;;;;;;;;;;2201419;66;1893;-15
2024/04/17 03:46:52;;;;;;;;;;;;;;;;;;2200958;66;1826;-16
2024/04/17 03:49:23;;;;;;;;;;;;;;;;;;2201624;66;1945;-15
2024/04/17 03:51:54;;;;;;;;;;;;;;;;;;2200726;66;2072;-16
2024/04/17 03:54:24;;;;;;;;;;;;;;;;;;2202174;66;1831;-16
2024/04/17 03:56:54;;;;;;;;;;;;;;;;;;2200354;66;1979;-16
2024/04/17 03:59:25;;;;;;;;;;;;;;;;;;2202085;66;2015;-16
2024/04/17 04:01:55;;;;;;;;;;;;;;;;;;2200823;59;1837;-16
2024/04/17 04:04:26;;;;;;;;;;;;;;;;;;2201785;66;1905;-17
2024/04/17 04:06:57;;;;;;;;;;;;;;;;;;2201156;66;1862;-15
2024/04/17 04:09:27;;;;;;;;;;;;;;;;;;2201571;59;1931;-16
2024/04/17 04:11:58;;;;;;;;;;;;;;;;;;2200999;66;1818;-16
2024/04/17 04:14:28;;;;;;;;;;;;;;;;;;2201078;66;1915;-16
2024/04/17 04:16:59;;;;;;;;;;;;;;;;;;2200713;66;2112;-16
2024/04/17 04:19:29;;;;;;;;;;;;;;;;;;2201951;66;1875;-16
2024/04/17 04:21:59;;;;;;;;;;;;;;;;;;2200702;66;1680;-16
2024/04/17 04:24:30;;;;;;;;;;;;;;;;;;2202181;66;2328;-16
2024/04/17 04:27:06;;;;;;;;;;;;;;;;;;2201659;59;2032;-16
2024/04/17 04:29:36;;;;;;;;;;;;;;;;;;2201916;59;2114;-17
2024/04/17 04:32:07;;;;;;;;;;;;;;;;;;2201063;59;1952;-16
2024/04/17 04:34:37;;;;;;;;;;;;;;;;;;2202799;59;2690;-17
2024/04/17 04:37:07;;;;;;;;;;;;;;;;;;2200615;66;2262;-17
2024/04/17 04:39:38;;;;;;;;;;;;;;;;;;2202247;66;1993;-16
2024/04/17 04:42:09;;;;;;;;;;;;;;;;;;2200515;66;2298;-16
2024/04/17 04:44:39;;;;;;;;;;;;;;;;;;2202060;66;1852;-16
2024/04/17 04:47:09;;;;;;;;;;;;;;;;;;2200780;66;2483;-16
2024/04/17 04:49:40;;;;;;;;;;;;;;;;;;2204375;59;2200;-16
2024/04/17 04:52:11;;;;;;;;;;;;;;;;;;2200754;66;2002;-17
2024/04/17 04:54:42;;;;;;;;;;;;;;;;;;2201801;66;1945;-16
2024/04/17 04:57:12;;;;;;;;;;;;;;;;;;2203122;66;1842;-16
2024/04/17 04:59:42;;;;;;;;;;;;;;;;;;2201803;66;1879;-16
2024/04/17 05:02:12;;;;;;;;;;;;;;;;;;2201035;59;1816;-16
2024/04/17 05:04:43;;;;;;;;;;;;;;;;;;2202069;66;2042;-16
2024/04/17 05:07:13;;;;;;;;;;;;;;;;;;2200642;66;1806;-16
2024/04/17 05:09:43;;;;;;;;;;;;;;;;;;2201828;59;1947;-16
2024/04/17 05:12:14;;;;;;;;;;;;;;;;;;2201052;66;1831;-16
2024/04/17 05:14:44;;;;;;;;;;;;;;;;;;2207380;66;1862;-16
2024/04/17 05:17:14;;;;;;;;;;;;;;;;;;2200292;66;2036;-16
2024/04/17 05:19:45;;;;;;;;;;;;;;;;;;2201581;66;2066;-16
2024/04/17 05:22:15;;;;;;;;;;;;;;;;;;2200254;66;1838;-16
2024/04/17 05:24:45;;;;;;;;;;;;;;;;;;2207798;58;2073;-16
2024/04/17 05:27:16;;;;;;;;;;;;;;;;;;2201645;59;1981;-17
2024/04/17 05:29:46;;;;;;;;;;;;;;;;;;2202109;66;2020;-16
2024/04/17 05:32:16;;;;;;;;;;;;;;;;;;2200722;59;1910;-16
2024/04/17 05:34:47;;;;;;;;;;;;;;;;;;2201713;58;2684;-16
2024/04/17 05:37:17;;;;;;;;;;;;;;;;;;2201232;66;1986;-16
2024/04/17 05:39:47;;;;;;;;;;;;;;;;;;2202027;66;1884;-16
2024/04/17 05:42:18;;;;;;;;;;;;;;;;;;2201543;66;1778;-16
2024/04/17 05:44:48;;;;;;;;;;;;;;;;;;2202144;66;1845;-15
2024/04/17 05:47:18;;;;;;;;;;;;;;;;;;2198119;66;1814;-15
2024/04/17 05:49:49;;;;;;;;;;;;;;;;;;2201650;66;1936;-16
2024/04/17 05:52:20;;;;;;;;;;;;;;;;;;2201478;66;1887;-15
2024/04/17 05:54:50;;;;;;;;;;;;;;;;;;2201658;66;1990;-16
2024/04/17 05:57:21;;;;;;;;;;;;;;;;;;2200613;66;1872;-17
2024/04/17 05:59:51;;;;;;;;;;;;;;;;;;2201909;66;1978;-17
2024/04/17 06:02:21;;;;;;;;;;;;;;;;;;2200980;59;1987;-16
2024/04/17 06:04:52;;;;;;;;;;;;;;;;;;2201760;66;1942;-16
2024/04/17 06:07:22;;;;;;;;;;;;;;;;;;2200678;66;1962;-15
2024/04/17 06:09:53;;;;;;;;;;;;;;;;;;2201920;59;1941;-16
2024/04/17 06:12:23;;;;;;;;;;;;;;;;;;2198155;66;2634;-15
2024/04/17 06:14:53;;;;;;;;;;;;;;;;;;2202083;66;2627;-15
2024/04/17 06:17:25;;;;;;;;;;;;;;;;;;2199853;66;3372;-16
2024/04/17 06:19:55;;;;;;;;;;;;;;;;;;2202092;59;2873;-16
2024/04/17 06:22:25;;;;;;;;;;;;;;;;;;2199596;66;2056;-16
2024/04/17 06:24:56;;;;;;;;;;;;;;;;;;2202569;66;1806;-16
2024/04/17 06:27:26;;;;;;;;;;;;;;;;;;2200366;59;2577;-16
2024/04/17 06:29:58;;;;;;;;;;;;;;;;;;2201454;59;2073;-16
2024/04/17 06:32:28;;;;;;;;;;;;;;;;;;2201790;59;2147;-16
2024/04/17 06:34:58;;;;;;;;;;;;;;;;;;2199869;59;2618;-16
2024/04/17 06:37:29;;;;;;;;;;;;;;;;;;2201602;59;2545;-15
2024/04/17 06:39:59;;;;;;;;;;;;;;;;;;2198435;66;1939;-16
2024/04/17 06:42:29;;;;;;;;;;;;;;;;;;2207826;66;1872;-17
2024/04/17 06:45:01;;;;;;;;;;;;;;;;;;2200919;59;1850;-16
2024/04/17 06:47:32;;;;;;;;;;;;;;;;;;2200970;66;1988;-15
2024/04/17 06:50:02;;;;;;;;;;;;;;;;;;2200284;66;1925;-16
2024/04/17 06:52:32;;;;;;;;;;;;;;;;;;2200902;66;1871;-16
2024/04/17 06:55:03;;;;;;;;;;;;;;;;;;2201414;66;1835;-16
2024/04/17 06:57:34;;;;;;;;;;;;;;;;;;2202270;66;1755;-15
2024/04/17 07:00:05;;;;;;;;;;;;;;;;;;2200530;66;2153;-16
2024/04/17 07:02:35;;;;;;;;;;;;;;;;;;2201520;59;1849;-16
2024/04/17 07:05:05;;;;;;;;;;;;;;;;;;2200495;66;2549;-16
2024/04/17 07:07:36;;;;;;;;;;;;;;;;;;2203853;66;1820;-15
2024/04/17 07:10:06;;;;;;;;;;;;;;;;;;2200522;59;2168;-16
2024/04/17 07:12:37;;;;;;;;;;;;;;;;;;2197814;59;2630;-15
2024/04/17 07:15:07;;;;;;;;;;;;;;;;;;2190839;59;3018;-16
2024/04/17 07:17:37;;;;;;;;;;;;;;;;;;2193809;66;3113;-16
2024/04/17 07:20:08;;;;;;;;;;;;;;;;;;2200453;59;1914;-15
2024/04/17 07:22:38;;;;;;;;;;;;;;;;;;2201222;58;1990;-16
2024/04/17 07:25:10;;;;;;;;;;;;;;;;;;2199977;59;1885;-16
2024/04/17 07:27:40;;;;;;;;;;;;;;;;;;2196489;59;2534;-16
2024/04/17 07:30:11;;;;;;;;;;;;;;;;;;2200228;66;1953;-15
2024/04/17 07:32:41;;;;;;;;;;;;;;;;;;2201497;59;1908;-16
2024/04/17 07:35:11;;;;;;;;;;;;;;;;;;2200561;59;2579;-15
2024/04/17 07:37:42;;;;;;;;;;;;;;;;;;2201833;66;2497;-16
2024/04/17 07:40:14;;;;;;;;;;;;;;;;;;2199389;66;1940;-16
2024/04/17 07:42:46;;;;;;;;;;;;;;;;;;2200582;66;2513;-15
2024/04/17 07:45:16;;;;;;;;;;;;;;;;;;2198768;66;2639;-15
2024/04/17 07:47:47;;;;;;;;;;;;;;;;;;2198734;59;2243;-15
2024/04/17 07:50:18;;;;;;;;;;;;;;;;;;2200223;59;2473;-16
2024/04/17 07:52:49;;;;;;;;;;;;;;;;;;2200682;66;1926;-16
2024/04/17 07:55:19;;;;;;;;;;;;;;;;;;2196945;66;1840;-15
2024/04/17 07:57:49;;;;;;;;;;;;;;;;;;2200867;66;2793;-16
2024/04/17 08:00:20;;;;;;;;;;;;;;;;;;2200280;66;2470;-16
2024/04/17 08:02:50;;;;;;;;;;;;;;;;;;2201277;59;1783;-15
2024/04/17 08:05:20;;;;;;;;;;;;;;;;;;2199494;66;1964;-16
2024/04/17 08:07:50;;;;;;;;;;;;;;;;;;2200405;66;2063;-16
2024/04/17 08:10:21;;;;;;;;;;;;;;;;;;2196366;59;2505;-16
2024/04/17 08:13:04;;;;;;;;;;;;;;;;;;2198273;66;2282;-16
2024/04/17 08:15:35;;;;;;;;;;;;;;;;;;2198773;66;2730;-16
2024/04/17 08:18:05;;;;;;;;;;;;;;;;;;2197965;58;2135;-16
2024/04/17 08:20:36;;;;;;;;;;;;;;;;;;2200064;66;2811;-16
2024/04/17 08:23:07;;;;;;;;;;;;;;;;;;2198532;58;2244;-16
2024/04/17 08:25:40;;;;;;;;;;;;;;;;;;2200447;59;1837;-15
2024/04/17 08:28:10;;;;;;;;;;;;;;;;;;2199372;66;2012;-16
2024/04/17 08:30:40;;;;;;;;;;;;;;;;;;2200760;59;2822;-15
2024/04/17 08:33:11;;;;;;;;;;;;;;;;;;2199892;59;1899;-16
2024/04/17 08:35:41;;;;;;;;;;;;;;;;;;2200917;59;2880;-16
2024/04/17 08:38:11;;;;;;;;;;;;;;;;;;2199824;66;2030;-16
2024/04/17 08:40:43;;;;;;;;;;;;;;;;;;2197971;59;2315;-16
2024/04/17 08:43:23;;;;;;;;;;;;;;;;;;2198928;66;2632;-16
2024/04/17 08:45:54;;;;;;;;;;;;;;;;;;2200244;59;3862;-16
2024/04/17 08:48:25;;;;;;;;;;;;;;;;;;2199644;66;2035;-16
2024/04/17 08:50:57;;;;;;;;;;;;;;;;;;2198831;59;2657;-15
2024/04/17 08:53:28;;;;;;;;;;;;;;;;;;2198690;59;2834;-16
2024/04/17 08:55:59;;;;;;;;;;;;;;;;;;2200301;66;3273;-16
2024/04/17 08:58:29;;;;;;;;;;;;;;;;;;2199031;59;2585;-16
2024/04/17 09:01:02;;;;;;;;;;;;;;;;;;2199019;59;2663;-16
2024/04/17 09:03:34;;;;;;;;;;;;;;;;;;2198983;66;3814;-16
2024/04/17 09:06:05;;;;;;;;;;;;;;;;;;2201578;63;1881;-16
2024/04/17 09:08:36;;;;;;;;;;;;;;;;;;2200183;66;1938;-16
2024/04/17 09:11:08;;;;;;;;;;;;;;;;;;2201001;59;1750;-16
2024/04/17 09:13:38;;;;;;;;;;;;;;;;;;2200956;66;2074;-16
2024/04/17 09:16:08;;;;;;;;;;;;;;;;;;2201007;66;1937;-16
2024/04/17 09:18:40;;;;;;;;;;;;;;;;;;2203574;66;1838;-16
2024/04/17 09:21:12;;;;;;;;;;;;;;;;;;2199925;66;1951;-16
2024/04/17 09:23:42;;;;;;;;;;;;;;;;;;2202254;58;2014;-16
2024/04/17 09:26:13;;;;;;;;;;;;;;;;;;2200851;59;1821;-16
2024/04/17 09:28:44;;;;;;;;;;;;;;;;;;2201461;59;1935;-16
2024/04/17 09:31:14;;;;;;;;;;;;;;;;;;2200189;66;1820;-16
2024/04/17 09:33:45;;;;;;;;;;;;;;;;;;2201377;59;3445;-16
2024/04/17 09:36:17;;;;;;;;;;;;;;;;;;2201104;59;2682;-16
2024/04/17 09:38:47;;;;;;;;;;;;;;;;;;2201550;66;1911;-16
2024/04/17 09:41:17;;;;;;;;;;;;;;;;;;2200947;66;1913;-16
2024/04/17 09:43:49;;;;;;;;;;;;;;;;;;2200592;66;3578;-16
2024/04/17 09:46:19;;;;;;;;;;;;;;;;;;2199920;66;4294;-16
2024/04/17 09:48:53;;;;;;;;;;;;;;;;;;2201171;59;2344;-15
2024/04/17 09:51:25;;;;;;;;;;;;;;;;;;2199253;59;1945;-16
2024/04/17 09:53:59;;;;;;;;;;;;;;;;;;2198020;66;1811;-16
2024/04/17 09:56:31;;;;;;;;;;;;;;;;;;2200656;66;1846;-16
2024/04/17 09:59:02;;;;;;;;;;;;;;;;;;2200607;66;1880;-16
2024/04/17 10:01:33;;;;;;;;;;;;;;;;;;2200817;59;1971;-17
2024/04/17 10:04:03;;;;;;;;;;;;;;;;;;2201608;66;1980;-17
2024/04/17 10:06:37;;;;;;;;;;;;;;;;;;2199841;59;2386;-16
2024/04/17 10:09:09;;;;;;;;;;;;;;;;;;2200015;59;2845;-16
2024/04/17 10:11:40;;;;;;;;;;;;;;;;;;2200528;59;2386;-16
2024/04/17 10:14:12;;;;;;;;;;;;;;;;;;2202592;59;2476;-16
2024/04/17 10:16:42;;;;;;;;;;;;;;;;;;2200101;59;2329;-16
2024/04/17 10:19:13;;;;;;;;;;;;;;;;;;2200374;59;2447;-16
2024/04/17 10:21:43;;;;;;;;;;;;;;;;;;2200724;66;2442;-16
2024/04/17 10:24:13;;;;;;;;;;;;;;;;;;2199981;58;2717;-15
2024/04/17 10:26:50;;;;;;;;;;;;;;;;;;2200813;59;2526;-16
2024/04/17 10:29:25;;;;;;;;;;;;;;;;;;2199332;59;2781;-15
2024/04/17 10:31:58;;;;;;;;;;;;;;;;;;2200646;59;2612;-16
2024/04/17 10:34:30;;;;;;;;;;;;;;;;;;2196733;59;2850;-16
2024/04/17 10:37:01;;;;;;;;;;;;;;;;;;2200184;59;2466;-16
2024/04/17 10:39:33;;;;;;;;;;;;;;;;;;2195855;59;2927;-16
2024/04/17 10:42:04;;;;;;;;;;;;;;;;;;2198599;59;4207;-17
2024/04/17 10:44:35;;;;;;;;;;;;;;;;;;2200124;66;1793;-17
2024/04/17 10:47:05;;;;;;;;;;;;;;;;;;2200682;66;3042;-17
2024/04/17 10:49:39;;;;;;;;;;;;;;;;;;2200213;66;2297;-16
2024/04/17 10:52:10;;;;;;;;;;;;;;;;;;2200585;59;4046;-17
2024/04/17 10:54:41;;;;;;;;;;;;;;;;;;2203959;59;2113;-18
2024/04/17 10:57:12;;;;;;;;;;;;;;;;;;2207313;59;3978;-18
2024/04/17 10:59:46;;;;;;;;;;;;;;;;;;2205082;59;2304;-17
2024/04/17 11:02:17;;;;;;;;;;;;;;;;;;2198921;59;4231;-17
2024/04/17 11:04:47;;;;;;;;;;;;;;;;;;2198334;59;2649;-18
2024/04/17 11:07:18;;;;;;;;;;;;;;;;;;2199133;59;2480;-16
2024/04/17 11:09:48;;;;;;;;;;;;;;;;;;2200504;66;2672;-17
2024/04/17 11:12:19;;;;;;;;;;;;;;;;;;2199424;59;2633;-16
2024/04/17 11:14:58;;;;;;;;;;;;;;;;;;2200272;66;2000;-17
2024/04/17 11:17:28;;;;;;;;;;;;;;;;;;2196694;59;2185;-17
2024/04/17 11:19:59;;;;;;;;;;;;;;;;;;2199815;66;2895;-16
2024/04/17 11:22:29;;;;;;;;;;;;;;;;;;2198949;59;2777;-17
2024/04/17 11:25:02;;;;;;;;;;;;;;;;;;2197819;59;3846;-16
2024/04/17 11:27:32;;;;;;;;;;;;;;;;;;2198671;59;2839;-16
2024/04/17 11:30:03;;;;;;;;;;;;;;;;;;2199591;59;2710;-22
2024/04/17 11:32:33;;;;;;;;;;;;;;;;;;2198243;59;3128;-19
2024/04/17 11:35:14;;;;;;;;;;;;;;;;;;2200140;59;2149;-21
2024/04/17 11:37:45;;;;;;;;;;;;;;;;;;2200045;66;1956;-20
2024/04/17 11:40:16;;;;;;;;;;;;;;;;;;2201517;66;3082;-19
2024/04/17 11:42:46;;;;;;;;;;;;;;;;;;2200163;66;1896;-20
2024/04/17 11:45:17;;;;;;;;;;;;;;;;;;2201148;66;1795;-19
2024/04/17 11:47:47;;;;;;;;;;;;;;;;;;2200696;59;1985;-19
2024/04/17 11:50:17;;;;;;;;;;;;;;;;;;2201660;66;1937;-21
2024/04/17 11:52:48;;;;;;;;;;;;;;;;;;2202236;59;1834;-21
2024/04/17 11:55:18;;;;;;;;;;;;;;;;;;2200978;66;2597;-21
2024/04/17 11:57:48;;;;;;;;;;;;;;;;;;2200077;66;1822;-22
2024/04/17 12:00:19;;;;;;;;;;;;;;;;;;2200847;59;1901;-21
2024/04/17 12:02:49;;;;;;;;;;;;;;;;;;2201496;59;1964;-21
2024/04/17 12:05:20;;;;;;;;;;;;;;;;;;2201693;59;1955;-20
2024/04/17 12:07:51;;;;;;;;;;;;;;;;;;2202117;66;1892;-20
2024/04/17 12:10:21;;;;;;;;;;;;;;;;;;2200432;59;1951;-21
2024/04/17 12:12:51;;;;;;;;;;;;;;;;;;2201306;66;2658;-21
2024/04/17 12:15:21;;;;;;;;;;;;;;;;;;2205367;66;1878;-21
2024/04/17 12:17:52;;;;;;;;;;;;;;;;;;2202241;66;1889;-20
2024/04/17 12:20:22;;;;;;;;;;;;;;;;;;2199828;66;2686;-19
2024/04/17 12:22:52;;;;;;;;;;;;;;;;;;2201726;58;2577;-19
2024/04/17 12:28:12;;;;;;;;;;;;;;;;;;2201788;59;2004;-22
2024/04/17 12:30:42;;;;;;;;;;;;;;;;;;2199878;66;1992;-20
2024/04/17 12:33:12;;;;;;;;;;;;;;;;;;2203147;59;1914;-22
2024/04/17 12:35:43;;;;;;;;;;;;;;;;;;2200526;59;2784;-21
2024/04/17 12:38:13;;;;;;;;;;;;;;;;;;2202027;66;1774;-22
2024/04/17 12:40:44;;;;;;;;;;;;;;;;;;2199868;66;2264;-20
2024/04/17 12:43:16;;;;;;;;;;;;;;;;;;2201864;59;3357;-20
2024/04/17 12:45:46;;;;;;;;;;;;;;;;;;2200790;66;1851;-22
2024/04/17 12:48:16;;;;;;;;;;;;;;;;;;2202817;59;2816;-21
2024/04/17 12:50:47;;;;;;;;;;;;;;;;;;2200575;59;1872;-22
2024/04/17 12:53:17;;;;;;;;;;;;;;;;;;2201856;66;1895;-19
2024/04/17 12:55:54;;;;;;;;;;;;;;;;;;2200131;58;2012;-21
2024/04/17 12:58:24;;;;;;;;;;;;;;;;;;2201248;66;1909;-22
2024/04/17 13:00:55;;;;;;;;;;;;;;;;;;2202875;59;1974;-19
2024/04/17 13:03:25;;;;;;;;;;;;;;;;;;2200492;66;3384;-21
2024/04/17 13:06:02;;;;;;;;;;;;;;;;;;2202734;66;2022;-21
2024/04/17 13:08:32;;;;;;;;;;;;;;;;;;2201433;59;3017;-22
2024/04/17 13:11:02;;;;;;;;;;;;;;;;;;2204735;59;2410;-23
2024/04/17 13:13:33;;;;;;;;;;;;;;;;;;2201576;66;2150;-22
2024/04/17 13:16:03;;;;;;;;;;;;;;;;;;2201149;66;2039;-21
2024/04/17 13:18:34;;;;;;;;;;;;;;;;;;2200781;59;1979;-20
2024/04/17 13:21:04;;;;;;;;;;;;;;;;;;2201241;66;2485;-20
2024/04/17 13:23:34;;;;;;;;;;;;;;;;;;2201583;58;1873;-21
2024/04/17 13:26:05;;;;;;;;;;;;;;;;;;2201342;59;1804;-21
2024/04/17 13:28:35;;;;;;;;;;;;;;;;;;2202762;59;2498;-20
2024/04/17 13:31:06;;;;;;;;;;;;;;;;;;2202074;66;1903;-20
2024/04/17 13:33:37;;;;;;;;;;;;;;;;;;2201106;59;2010;-21
2024/04/17 13:36:10;;;;;;;;;;;;;;;;;;2201981;59;2651;-20
2024/04/17 13:38:40;;;;;;;;;;;;;;;;;;2200881;66;1870;-20
2024/04/17 13:41:11;;;;;;;;;;;;;;;;;;2201622;66;3311;-19
2024/04/17 13:43:41;;;;;;;;;;;;;;;;;;2201240;59;1978;-21
2024/04/17 13:46:13;;;;;;;;;;;;;;;;;;2201316;66;1963;-20
2024/04/17 13:48:43;;;;;;;;;;;;;;;;;;2199934;66;1953;-20
2024/04/17 13:51:15;;;;;;;;;;;;;;;;;;2200971;66;1922;-21
2024/04/17 13:53:52;;;;;;;;;;;;;;;;;;2199901;66;1991;-22
2024/04/17 13:56:23;;;;;;;;;;;;;;;;;;2201784;66;1757;-21
2024/04/17 13:58:53;;;;;;;;;;;;;;;;;;2199858;62;2067;-21
2024/04/17 14:01:23;;;;;;;;;;;;;;;;;;2201498;59;1835;-21
2024/04/17 14:03:54;;;;;;;;;;;;;;;;;;2202529;66;2527;-21
2024/04/17 14:06:24;;;;;;;;;;;;;;;;;;2201967;66;1787;-20
2024/04/17 14:08:55;;;;;;;;;;;;;;;;;;2200733;66;2699;-18
2024/04/17 14:11:25;;;;;;;;;;;;;;;;;;2204000;59;2473;-20
2024/04/17 14:13:57;;;;;;;;;;;;;;;;;;2201073;59;1939;-19
2024/04/17 14:16:28;;;;;;;;;;;;;;;;;;2203335;66;1866;-21
2024/04/17 14:18:58;;;;;;;;;;;;;;;;;;2206102;66;2157;-21
2024/04/17 14:21:28;;;;;;;;;;;;;;;;;;2203589;66;1783;-22
2024/04/17 14:23:59;;;;;;;;;;;;;;;;;;2202535;59;2025;-19
2024/04/17 14:26:29;;;;;;;;;;;;;;;;;;2200299;59;2277;-21
2024/04/17 14:28:59;;;;;;;;;;;;;;;;;;2202458;66;3066;-20
2024/04/17 14:31:30;;;;;;;;;;;;;;;;;;2201853;66;2406;-21
2024/04/17 14:34:01;;;;;;;;;;;;;;;;;;2206701;59;1953;-20
2024/04/17 14:36:31;;;;;;;;;;;;;;;;;;2201224;59;2675;-21
2024/04/17 14:39:02;;;;;;;;;;;;;;;;;;2201148;66;1972;-21
2024/04/17 14:41:32;;;;;;;;;;;;;;;;;;2198970;66;2669;-19
2024/04/17 14:44:02;;;;;;;;;;;;;;;;;;2202041;66;2274;-22
2024/04/17 14:46:33;;;;;;;;;;;;;;;;;;2199236;59;2500;-20
2024/04/17 14:49:03;;;;;;;;;;;;;;;;;;2202238;59;1942;-19
2024/04/17 14:51:34;;;;;;;;;;;;;;;;;;2200161;66;2488;-19
2024/04/17 14:54:04;;;;;;;;;;;;;;;;;;2201909;59;1978;-19
2024/04/17 14:56:34;;;;;;;;;;;;;;;;;;2197988;66;2979;-19
2024/04/17 14:59:07;;;;;;;;;;;;;;;;;;2207606;66;2759;-20
2024/04/17 15:01:38;;;;;;;;;;;;;;;;;;2199890;59;1875;-18
2024/04/17 15:04:09;;;;;;;;;;;;;;;;;;2201442;66;1921;-22
2024/04/17 15:06:39;;;;;;;;;;;;;;;;;;2199757;66;2694;-18
2024/04/17 15:09:09;;;;;;;;;;;;;;;;;;2199557;59;2094;-20
2024/04/17 15:11:40;;;;;;;;;;;;;;;;;;2198869;59;2276;-20
2024/04/17 15:14:10;;;;;;;;;;;;;;;;;;2200356;62;2482;-19
2024/04/17 15:16:43;;;;;;;;;;;;;;;;;;2200839;66;1991;-18
2024/04/17 15:19:15;;;;;;;;;;;;;;;;;;2200214;66;2751;-18
2024/04/17 15:21:45;;;;;;;;;;;;;;;;;;2198963;59;2817;-20
2024/04/17 15:24:16;;;;;;;;;;;;;;;;;;2200445;58;3247;-19
2024/04/17 15:26:46;;;;;;;;;;;;;;;;;;2198723;59;2779;-21
2024/04/17 15:29:17;;;;;;;;;;;;;;;;;;2200883;66;2888;-18
2024/04/17 15:31:48;;;;;;;;;;;;;;;;;;2198785;59;2837;-19
2024/04/17 15:34:18;;;;;;;;;;;;;;;;;;2201972;59;2262;-21
2024/04/17 15:36:48;;;;;;;;;;;;;;;;;;2200239;59;2609;-18
2024/04/17 15:39:23;;;;;;;;;;;;;;;;;;2200875;66;1830;-19
2024/04/17 15:41:53;;;;;;;;;;;;;;;;;;2199100;59;2384;-18
2024/04/17 15:44:23;;;;;;;;;;;;;;;;;;2200516;66;2614;-19
2024/04/17 15:46:54;;;;;;;;;;;;;;;;;;2199252;66;2849;-18
2024/04/17 15:49:25;;;;;;;;;;;;;;;;;;2201205;66;1942;-19
2024/04/17 15:51:55;;;;;;;;;;;;;;;;;;2199392;66;2674;-17
2024/04/17 15:54:26;;;;;;;;;;;;;;;;;;2200487;66;2836;-20
2024/04/17 15:56:56;;;;;;;;;;;;;;;;;;2199214;66;2296;-18
2024/04/17 15:59:29;;;;;;;;;;;;;;;;;;2200963;66;2440;-18
2024/04/17 16:01:59;;;;;;;;;;;;;;;;;;2200031;66;1931;-19
2024/04/17 16:04:30;;;;;;;;;;;;;;;;;;2204127;66;1797;-20
2024/04/17 16:07:00;;;;;;;;;;;;;;;;;;2200595;66;2270;-18
2024/04/17 16:09:30;;;;;;;;;;;;;;;;;;2201317;66;1991;-17
2024/04/17 16:12:00;;;;;;;;;;;;;;;;;;2202228;66;1834;-17
2024/04/17 16:14:31;;;;;;;;;;;;;;;;;;2202482;66;1922;-18
2024/04/17 16:17:01;;;;;;;;;;;;;;;;;;2199962;66;2545;-18
2024/04/17 16:19:31;;;;;;;;;;;;;;;;;;2200936;66;2847;-17
2024/04/17 16:22:02;;;;;;;;;;;;;;;;;;2199832;59;3065;-19
2024/04/17 16:24:32;;;;;;;;;;;;;;;;;;2200974;59;3135;-18
2024/04/17 16:27:03;;;;;;;;;;;;;;;;;;2200720;59;2915;-19
2024/04/17 16:29:33;;;;;;;;;;;;;;;;;;2201184;66;2047;-19
2024/04/17 16:32:04;;;;;;;;;;;;;;;;;;2200761;59;1929;-17
2024/04/17 16:34:34;;;;;;;;;;;;;;;;;;2202370;59;1934;-19
2024/04/17 16:37:06;;;;;;;;;;;;;;;;;;2203111;59;2200;-18
2024/04/17 16:39:38;;;;;;;;;;;;;;;;;;2200788;66;2649;-19
2024/04/17 16:42:09;;;;;;;;;;;;;;;;;;2202362;59;1740;-20
2024/04/17 16:44:39;;;;;;;;;;;;;;;;;;2202894;66;2255;-18
2024/04/17 16:47:09;;;;;;;;;;;;;;;;;;2200036;59;2218;-18
2024/04/17 16:49:40;;;;;;;;;;;;;;;;;;2199818;66;1987;-18
2024/04/17 16:52:10;;;;;;;;;;;;;;;;;;2201842;66;1857;-17
2024/04/17 16:54:40;;;;;;;;;;;;;;;;;;2200054;66;1899;-19
2024/04/17 16:57:11;;;;;;;;;;;;;;;;;;2206330;66;1848;-18
2024/04/17 16:59:41;;;;;;;;;;;;;;;;;;2200085;66;1979;-18
2024/04/17 17:02:11;;;;;;;;;;;;;;;;;;2201471;59;1780;-19
2024/04/17 17:04:42;;;;;;;;;;;;;;;;;;2199811;66;2435;-17
2024/04/17 17:07:12;;;;;;;;;;;;;;;;;;2201851;66;1782;-18
2024/04/17 17:09:42;;;;;;;;;;;;;;;;;;2197559;59;1961;-17
2024/04/17 17:12:13;;;;;;;;;;;;;;;;;;2202645;66;3125;-18
2024/04/17 17:14:45;;;;;;;;;;;;;;;;;;2199419;66;3262;-18
2024/04/17 17:17:15;;;;;;;;;;;;;;;;;;2200887;66;1811;-18
2024/04/17 17:19:49;;;;;;;;;;;;;;;;;;2199216;66;1836;-20
2024/04/17 17:22:21;;;;;;;;;;;;;;;;;;2201037;66;1838;-18
2024/04/17 17:24:51;;;;;;;;;;;;;;;;;;2197637;58;2203;-18
2024/04/17 17:27:21;;;;;;;;;;;;;;;;;;2200220;59;2244;-20
2024/04/17 17:29:52;;;;;;;;;;;;;;;;;;2198918;66;1948;-18